createdAt,value
2022-10-30T00:01:30.199Z,76.27
2022-10-30T00:04:32.369Z,75.32
2022-10-30T00:07:34.256Z,71.67
2022-10-30T00:10:36.037Z,74.91
2022-10-30T00:13:37.839Z,73.15
2022-10-30T00:16:39.627Z,72.93
2022-10-30T00:19:41.424Z,76.43
2022-10-30T00:22:43.282Z,74.82
2022-10-30T00:25:45.068Z,77.57
2022-10-30T00:28:50.701Z,74.23
2022-10-30T00:31:52.788Z,73.06
2022-10-30T00:34:54.609Z,72.79
2022-10-30T00:37:56.670Z,77.62
2022-10-30T00:40:58.779Z,73.31
2022-10-30T00:44:00.585Z,71.46
2022-10-30T00:47:06.236Z,72.14
2022-10-30T00:50:07.983Z,75.82
2022-10-30T00:53:13.741Z,73.18
2022-10-30T00:56:16.419Z,76.17
2022-10-30T00:59:19.847Z,78.14
2022-10-30T01:02:21.793Z,78.39
2022-10-30T01:05:23.867Z,79.77
2022-10-30T01:08:25.757Z,75.73
2022-10-30T01:11:27.695Z,73.04
2022-10-30T01:14:29.529Z,75.86
2022-10-30T01:17:41.542Z,79.74
2022-10-30T01:20:58.691Z,75.36
2022-10-30T01:24:03.555Z,71.90
2022-10-30T01:27:24.242Z,79.26
2022-10-30T01:30:25.988Z,76.59
2022-10-30T01:33:46.736Z,76.47
2022-10-30T01:36:59.879Z,74.36
2022-10-30T01:40:21.232Z,76.67
2022-10-30T01:43:23.051Z,72.42
2022-10-30T01:46:40.314Z,73.79
2022-10-30T01:50:08.444Z,74.13
2022-10-30T01:53:25.945Z,76.37
2022-10-30T01:56:36.900Z,74.56
2022-10-30T01:59:43.371Z,79.27
2022-10-30T02:02:45.258Z,75.14
2022-10-30T02:05:50.829Z,75.71
2022-10-30T02:08:55.165Z,75.57
2022-10-30T02:11:56.943Z,76.38
2022-10-30T02:14:59.221Z,73.54
2022-10-30T02:18:01.433Z,72.94
2022-10-30T02:21:03.565Z,70.62
2022-10-30T02:24:05.556Z,71.85
2022-10-30T02:27:07.349Z,70.69
2022-10-30T02:30:09.593Z,74.20
2022-10-30T02:33:11.453Z,77.44
2022-10-30T02:36:15.606Z,75.25
2022-10-30T02:39:18.057Z,73.17
2022-10-30T02:42:19.878Z,78.12
2022-10-30T02:45:21.709Z,77.38
2022-10-30T02:48:23.519Z,78.23
2022-10-30T02:51:25.303Z,76.29
2022-10-30T02:54:27.133Z,78.31
2022-10-30T02:57:28.957Z,80.80
2022-10-30T03:00:30.730Z,75.48
2022-10-30T03:03:32.519Z,76.58
2022-10-30T03:06:34.304Z,75.69
2022-10-30T03:09:36.090Z,75.46
2022-10-30T03:12:37.889Z,77.34
2022-10-30T03:15:39.668Z,77.31
2022-10-30T03:18:41.707Z,73.87
2022-10-30T03:21:43.509Z,73.46
2022-10-30T03:24:45.322Z,75.77
2022-10-30T03:27:47.097Z,74.98
2022-10-30T03:30:49.268Z,73.63
2022-10-30T03:33:51.065Z,79.26
2022-10-30T03:36:53.359Z,74.44
2022-10-30T03:39:55.175Z,73.82
2022-10-30T03:42:57.234Z,74.93
2022-10-30T03:45:59.284Z,75.14
2022-10-30T03:49:01.079Z,75.56
2022-10-30T03:52:02.919Z,77.69
2022-10-30T03:55:04.902Z,76.13
2022-10-30T03:58:06.871Z,79.60
2022-10-30T04:01:09.939Z,79.00
2022-10-30T04:04:11.792Z,75.35
2022-10-30T04:07:13.610Z,79.71
2022-10-30T04:10:20.868Z,82.96
2022-10-30T04:13:25.540Z,82.36
2022-10-30T04:16:27.348Z,79.11
2022-10-30T04:19:29.152Z,78.30
2022-10-30T04:22:30.926Z,75.78
2022-10-30T04:25:33.648Z,78.16
2022-10-30T04:28:35.407Z,79.27
2022-10-30T04:31:37.272Z,83.01
2022-10-30T04:34:39.578Z,80.30
2022-10-30T04:37:41.562Z,79.93
2022-10-30T04:40:43.593Z,81.91
2022-10-30T04:43:45.416Z,80.12
2022-10-30T04:46:47.198Z,78.91
2022-10-30T04:49:49.008Z,79.70
2022-10-30T04:52:58.222Z,80.51
2022-10-30T04:56:00.009Z,80.13
2022-10-30T04:59:01.903Z,78.63
2022-10-30T05:02:03.810Z,76.55
2022-10-30T05:05:05.739Z,75.06
2022-10-30T05:08:08.310Z,77.09
2022-10-30T05:11:10.169Z,74.95
2022-10-30T05:14:11.941Z,74.02
2022-10-30T05:17:13.743Z,73.75
2022-10-30T05:20:18.799Z,76.87
2022-10-30T05:23:20.970Z,75.84
2022-10-30T05:26:22.777Z,76.49
2022-10-30T05:29:25.841Z,78.10
2022-10-30T05:32:27.656Z,77.95
2022-10-30T05:35:29.536Z,79.07
2022-10-30T05:38:31.632Z,78.20
2022-10-30T05:41:33.432Z,78.64
2022-10-30T05:44:59.139Z,79.68
2022-10-30T05:47:57.994Z,77.97
2022-10-30T05:51:00.446Z,74.43
2022-10-30T05:54:02.244Z,72.85
2022-10-30T05:57:04.063Z,75.95
2022-10-30T06:00:06.218Z,74.80
2022-10-30T06:03:09.985Z,73.92
2022-10-30T06:06:11.832Z,73.96
2022-10-30T06:09:13.617Z,74.78
2022-10-30T06:12:15.445Z,76.72
2022-10-30T06:15:17.254Z,75.64
2022-10-30T06:18:19.078Z,71.46
2022-10-30T06:21:20.896Z,73.27
2022-10-30T06:24:22.695Z,70.75
2022-10-30T06:27:24.482Z,70.53
2022-10-30T06:30:26.757Z,70.10
2022-10-30T06:33:28.562Z,72.08
2022-10-30T06:36:30.387Z,78.15
2022-10-30T06:39:32.212Z,78.07
2022-10-30T06:42:34.036Z,77.25
2022-10-30T06:45:35.869Z,70.85
2022-10-30T06:48:37.684Z,72.35
2022-10-30T06:51:39.492Z,73.48
2022-10-30T06:54:41.332Z,70.53
2022-10-30T06:57:43.122Z,72.61
2022-10-30T07:00:44.996Z,74.52
2022-10-30T07:03:46.894Z,74.46
2022-10-30T07:06:48.701Z,73.74
2022-10-30T07:09:50.515Z,76.60
2022-10-30T07:12:53.012Z,77.17
2022-10-30T07:15:54.824Z,74.15
2022-10-30T07:18:59.388Z,73.05
2022-10-30T07:22:04.031Z,73.42
2022-10-30T07:25:05.899Z,73.91
2022-10-30T07:28:07.699Z,74.58
2022-10-30T07:31:09.535Z,74.01
2022-10-30T07:34:11.330Z,71.66
2022-10-30T07:37:13.144Z,69.75
2022-10-30T07:40:14.968Z,68.82
2022-10-30T07:43:16.769Z,72.50
2022-10-30T07:46:18.555Z,71.51
2022-10-30T07:49:20.347Z,70.56
2022-10-30T07:52:22.158Z,75.76
2022-10-30T07:55:24.075Z,69.83
2022-10-30T07:58:25.879Z,68.01
2022-10-30T08:01:27.763Z,68.74
2022-10-30T08:04:29.664Z,70.77
2022-10-30T08:07:31.944Z,75.55
2022-10-30T08:10:33.861Z,78.55
2022-10-30T08:13:35.656Z,75.21
2022-10-30T08:16:37.500Z,68.68
2022-10-30T08:19:39.277Z,69.96
2022-10-30T08:22:59.478Z,70.22
2022-10-30T08:26:01.459Z,71.05
2022-10-30T08:29:03.475Z,72.34
2022-10-30T08:32:05.583Z,75.01
2022-10-30T08:35:07.544Z,69.71
2022-10-30T08:38:09.408Z,66.56
2022-10-30T08:41:11.267Z,67.52
2022-10-30T08:44:13.072Z,65.47
2022-10-30T08:47:14.889Z,66.54
2022-10-30T08:50:16.741Z,69.36
2022-10-30T08:53:20.445Z,67.96
2022-10-30T08:56:22.252Z,71.48
2022-10-30T08:59:24.058Z,71.20
2022-10-30T09:02:25.910Z,72.03
2022-10-30T09:05:27.767Z,70.28
2022-10-30T09:08:29.557Z,69.83
2022-10-30T09:11:31.361Z,66.54
2022-10-30T09:14:33.243Z,65.52
2022-10-30T09:17:35.028Z,66.58
2022-10-30T09:20:36.867Z,67.96
2022-10-30T09:23:38.710Z,65.12
2022-10-30T09:26:40.507Z,65.73
2022-10-30T09:29:42.381Z,69.20
2022-10-30T09:32:44.225Z,70.50
2022-10-30T09:35:46.066Z,65.73
2022-10-30T09:38:47.918Z,63.78
2022-10-30T09:42:03.457Z,67.82
2022-10-30T09:45:29.999Z,67.28
2022-10-30T09:48:32.600Z,66.66
2022-10-30T09:51:40.545Z,62.77
2022-10-30T09:54:51.156Z,60.18
2022-10-30T09:57:52.947Z,65.06
2022-10-30T10:01:00.728Z,68.28
2022-10-30T10:04:07.620Z,63.30
2022-10-30T10:07:20.309Z,65.10
2022-10-30T10:10:34.318Z,66.00
2022-10-30T10:13:38.496Z,61.89
2022-10-30T10:16:40.786Z,60.59
2022-10-30T10:19:44.869Z,62.93
2022-10-30T10:22:50.237Z,64.73
2022-10-30T10:25:55.447Z,62.79
2022-10-30T10:29:10.696Z,65.21
2022-10-30T10:32:28.263Z,62.19
2022-10-30T10:35:29.999Z,66.25
2022-10-30T10:38:50.195Z,67.14
2022-10-30T10:41:53.642Z,61.74
2022-10-30T10:44:58.807Z,59.96
2022-10-30T10:48:18.032Z,59.96
2022-10-30T10:51:20.779Z,58.43
2022-10-30T10:54:33.008Z,58.83
2022-10-30T10:57:35.896Z,58.55
2022-10-30T11:00:37.715Z,59.04
2022-10-30T11:03:47.875Z,59.10
2022-10-30T11:06:50.597Z,67.43
2022-10-30T11:09:54.428Z,65.65
2022-10-30T11:12:56.536Z,62.13
2022-10-30T11:16:17.434Z,59.84
2022-10-30T11:19:19.299Z,62.01
2022-10-30T11:22:28.748Z,65.34
2022-10-30T11:25:34.309Z,62.15
2022-10-30T11:28:38.578Z,62.57
2022-10-30T11:31:41.409Z,61.93
2022-10-30T11:34:43.204Z,61.58
2022-10-30T11:37:45.778Z,58.50
2022-10-30T11:40:48.312Z,57.28
2022-10-30T11:43:50.153Z,59.36
2022-10-30T11:46:51.976Z,62.42
2022-10-30T11:49:54.196Z,59.72
2022-10-30T11:52:56.696Z,58.91
2022-10-30T11:55:58.484Z,61.71
2022-10-30T11:59:01.233Z,61.19
2022-10-30T12:02:04.293Z,61.70
2022-10-30T12:05:23.462Z,64.38
2022-10-30T12:08:25.325Z,57.33
2022-10-30T12:11:31.018Z,59.18
2022-10-30T12:14:34.438Z,60.54
2022-10-30T12:17:37.627Z,60.77
2022-10-30T12:20:39.479Z,58.76
2022-10-30T12:23:41.314Z,60.86
2022-10-30T12:26:45.673Z,58.15
2022-10-30T12:30:08.067Z,60.25
2022-10-30T12:33:18.335Z,57.25
2022-10-30T12:36:20.595Z,57.54
2022-10-30T12:39:35.621Z,63.24
2022-10-30T12:42:38.138Z,62.37
2022-10-30T12:45:44.263Z,63.14
2022-10-30T12:48:53.402Z,59.98
2022-10-30T12:52:06.363Z,56.98
2022-10-30T12:55:14.332Z,57.56
2022-10-30T12:58:16.104Z,61.04
2022-10-30T13:01:24.592Z,63.13
2022-10-30T13:04:31.351Z,64.21
2022-10-30T13:07:38.774Z,64.77
2022-10-30T13:10:42.573Z,64.72
2022-10-30T13:13:46.174Z,63.33
2022-10-30T13:16:47.996Z,61.95
2022-10-30T13:19:51.071Z,62.71
2022-10-30T13:23:04.240Z,57.83
2022-10-30T13:26:18.222Z,57.72
2022-10-30T13:29:19.994Z,58.45
2022-10-30T13:32:37.436Z,60.45
2022-10-30T13:36:08.731Z,61.30
2022-10-30T13:39:19.302Z,64.78
2022-10-30T13:42:36.110Z,64.08
2022-10-30T13:45:56.785Z,62.93
2022-10-30T13:48:58.815Z,63.36
2022-10-30T13:52:00.543Z,64.08
2022-10-30T13:55:18.000Z,61.36
2022-10-30T13:58:19.845Z,59.91
2022-10-30T14:01:21.717Z,66.40
2022-10-30T14:04:32.330Z,62.52
2022-10-30T14:07:34.073Z,59.26
2022-10-30T14:10:48.782Z,59.25
2022-10-30T14:13:57.153Z,62.02
2022-10-30T14:17:11.193Z,61.21
2022-10-30T14:20:14.524Z,63.89
2022-10-30T14:23:16.479Z,66.27
2022-10-30T14:26:19.663Z,64.40
2022-10-30T14:29:34.050Z,64.85
2022-10-30T14:32:41.125Z,63.65
2022-10-30T14:35:43.028Z,66.38
2022-10-30T14:38:52.176Z,64.74
2022-10-30T14:42:26.423Z,62.36
2022-10-30T14:45:51.664Z,60.55
2022-10-30T14:48:57.892Z,65.43
2022-10-30T14:52:14.554Z,62.14
2022-10-30T14:55:23.453Z,65.52
2022-10-30T14:58:26.174Z,65.91
2022-10-30T15:01:33.200Z,66.65
2022-10-30T15:04:38.154Z,65.74
2022-10-30T15:07:44.930Z,65.79
2022-10-30T15:11:11.848Z,66.23
2022-10-30T15:14:48.539Z,64.22
2022-10-30T15:17:55.836Z,63.51
2022-10-30T15:20:58.336Z,64.44
2022-10-30T15:24:01.127Z,64.60
2022-10-30T15:27:03.125Z,64.78
2022-10-30T15:30:05.177Z,65.11
2022-10-30T15:33:17.920Z,66.35
2022-10-30T15:36:30.434Z,73.23
2022-10-30T15:39:32.206Z,69.96
2022-10-30T15:42:34.227Z,69.00
2022-10-30T15:45:36.736Z,68.79
2022-10-30T15:48:39.748Z,68.79
2022-10-30T15:51:43.369Z,66.28
2022-10-30T15:54:45.752Z,66.69
2022-10-30T15:58:04.824Z,67.55
2022-10-30T16:01:06.961Z,68.10
2022-10-30T16:04:15.273Z,67.52
2022-10-30T16:07:22.149Z,67.80
2022-10-30T16:10:24.787Z,67.81
2022-10-30T16:13:28.400Z,64.81
2022-10-30T16:16:30.642Z,64.27
2022-10-30T16:19:35.998Z,65.91
2022-10-30T16:22:38.266Z,64.97
2022-10-30T16:25:45.881Z,65.53
2022-10-30T16:28:48.948Z,64.74
2022-10-30T16:31:50.816Z,66.35
2022-10-30T16:34:58.996Z,68.39
2022-10-30T16:38:02.661Z,66.91
2022-10-30T16:41:05.364Z,65.70
2022-10-30T16:44:13.893Z,65.57
2022-10-30T16:47:18.639Z,68.47
2022-10-30T16:50:20.595Z,65.30
2022-10-30T16:53:23.227Z,65.82
2022-10-30T16:56:26.467Z,66.01
2022-10-30T16:59:35.809Z,66.08
2022-10-30T17:02:37.662Z,66.55
2022-10-30T17:05:40.461Z,68.80
2022-10-30T17:08:43.083Z,68.54
2022-10-30T17:11:45.540Z,68.45
2022-10-30T17:14:48.664Z,66.03
2022-10-30T17:18:08.470Z,68.25
2022-10-30T17:21:14.132Z,70.30
2022-10-30T17:24:18.181Z,68.69
2022-10-30T17:27:26.051Z,71.31
2022-10-30T17:30:28.534Z,70.15
2022-10-30T17:33:30.330Z,67.74
2022-10-30T17:36:32.143Z,68.08
2022-10-30T17:39:33.960Z,65.74
2022-10-30T17:42:35.736Z,66.25
2022-10-30T17:45:37.547Z,68.19
2022-10-30T17:48:41.502Z,66.00
2022-10-30T17:51:43.326Z,66.45
2022-10-30T17:54:45.204Z,66.16
2022-10-30T17:57:47.014Z,69.95
2022-10-30T18:00:48.864Z,70.50
2022-10-30T18:03:51.294Z,66.96
2022-10-30T18:06:53.085Z,64.96
2022-10-30T18:09:54.885Z,71.67
2022-10-30T18:12:57.121Z,68.13
2022-10-30T18:15:59.251Z,70.36
2022-10-30T18:19:01.073Z,68.28
2022-10-30T18:22:02.997Z,68.56
2022-10-30T18:25:10.483Z,66.16
2022-10-30T18:28:12.323Z,66.96
2022-10-30T18:31:14.996Z,71.90
2022-10-30T18:34:18.226Z,71.31
2022-10-30T18:37:20.064Z,71.85
2022-10-30T18:40:22.755Z,69.29
2022-10-30T18:43:24.739Z,70.61
2022-10-30T18:46:26.673Z,69.35
2022-10-30T18:49:31.877Z,70.56
2022-10-30T18:52:33.676Z,69.66
2022-10-30T18:55:36.728Z,68.33
2022-10-30T18:58:38.595Z,68.49
2022-10-30T19:01:40.571Z,67.46
2022-10-30T19:04:42.501Z,68.89
2022-10-30T19:07:44.332Z,67.13
2022-10-30T19:10:46.767Z,67.68
2022-10-30T19:13:48.696Z,72.55
2022-10-30T19:16:50.483Z,69.15
2022-10-30T19:19:52.298Z,67.52
2022-10-30T19:22:54.088Z,68.84
2022-10-30T19:25:56.045Z,67.60
2022-10-30T19:28:57.861Z,71.47
2022-10-30T19:31:59.677Z,70.33
2022-10-30T19:35:01.493Z,67.58
2022-10-30T19:38:07.907Z,68.75
2022-10-30T19:41:09.735Z,69.88
2022-10-30T19:44:11.612Z,70.00
2022-10-30T19:47:13.472Z,70.28
2022-10-30T19:50:21.178Z,72.19
2022-10-30T19:53:23.000Z,71.67
2022-10-30T19:56:24.813Z,70.66
2022-10-30T19:59:26.626Z,67.10
2022-10-30T20:02:28.453Z,67.92
2022-10-30T20:05:31.065Z,69.73
2022-10-30T20:08:32.961Z,70.28
2022-10-30T20:11:34.765Z,68.87
2022-10-30T20:14:36.715Z,72.95
2022-10-30T20:17:38.525Z,69.73
2022-10-30T20:20:40.839Z,71.42
2022-10-30T20:23:42.698Z,71.10
2022-10-30T20:26:44.483Z,72.85
2022-10-30T20:29:46.293Z,72.71
2022-10-30T20:32:48.521Z,73.15
2022-10-30T20:35:50.388Z,70.46
2022-10-30T20:38:52.188Z,71.33
2022-10-30T20:41:53.961Z,70.75
2022-10-30T20:44:55.769Z,68.23
2022-10-30T20:47:57.915Z,67.57
2022-10-30T20:51:00.538Z,65.75
2022-10-30T20:54:02.354Z,66.71
2022-10-30T20:57:04.188Z,69.36
2022-10-30T21:00:06.853Z,73.30
2022-10-30T21:03:08.901Z,68.48
2022-10-30T21:06:10.741Z,75.76
2022-10-30T21:09:12.550Z,71.77
2022-10-30T21:12:14.347Z,71.89
2022-10-30T21:15:16.156Z,74.32
2022-10-30T21:18:18.028Z,69.90
2022-10-30T21:21:25.193Z,68.26
2022-10-30T21:24:27.549Z,67.83
2022-10-30T21:27:29.498Z,69.90
2022-10-30T21:30:31.295Z,70.04
2022-10-30T21:33:33.534Z,71.26
2022-10-30T21:36:35.312Z,73.59
2022-10-30T21:39:37.164Z,77.59
2022-10-30T21:42:38.978Z,72.38
2022-10-30T21:45:40.777Z,72.61
2022-10-30T21:48:42.610Z,70.47
2022-10-30T21:51:50.497Z,72.31
2022-10-30T21:54:52.309Z,72.95
2022-10-30T21:57:54.974Z,73.52
2022-10-30T22:00:56.833Z,73.61
2022-10-30T22:03:59.306Z,73.20
2022-10-30T22:07:01.117Z,77.10
2022-10-30T22:10:02.961Z,76.10
2022-10-30T22:13:04.780Z,72.59
2022-10-30T22:16:07.846Z,70.87
2022-10-30T22:19:10.253Z,71.95
2022-10-30T22:22:12.063Z,72.30
2022-10-30T22:25:13.863Z,74.16
2022-10-30T22:28:16.038Z,75.09
2022-10-30T22:31:18.284Z,75.67
2022-10-30T22:34:20.079Z,76.24
2022-10-30T22:37:21.946Z,74.54
2022-10-30T22:40:23.719Z,77.82
2022-10-30T22:43:25.529Z,77.66
2022-10-30T22:46:28.352Z,75.97
2022-10-30T22:49:30.185Z,71.99
2022-10-30T22:52:31.960Z,72.05
2022-10-30T22:55:33.758Z,73.69
2022-10-30T22:58:35.547Z,76.93
2022-10-30T23:01:37.772Z,78.33
2022-10-30T23:04:39.649Z,73.31
2022-10-30T23:07:41.457Z,72.52
2022-10-30T23:10:43.417Z,73.64
2022-10-30T23:13:48.289Z,75.21
2022-10-30T23:16:50.068Z,76.47
2022-10-30T23:19:51.913Z,74.56
2022-10-30T23:22:53.688Z,74.33
2022-10-30T23:25:55.627Z,74.16
2022-10-30T23:28:57.871Z,71.67
2022-10-30T23:31:59.703Z,71.10
2022-10-30T23:35:01.505Z,72.27
2022-10-30T23:38:03.734Z,73.34
2022-10-30T23:41:05.515Z,76.86
2022-10-30T23:44:08.481Z,75.13
2022-10-30T23:47:10.376Z,73.15
2022-10-30T23:50:12.189Z,72.72
2022-10-30T23:53:13.961Z,75.75
2022-10-30T23:56:16.084Z,72.80
2022-10-30T23:59:17.851Z,72.83
